createdAt,value
2018-09-04T00:03:10.029Z,97906.20
2018-09-04T00:08:04.697Z,97894.99
2018-09-04T00:12:58.805Z,97892.31
2018-09-04T00:17:54.240Z,97890.98
2018-09-04T00:22:48.290Z,97898.59
2018-09-04T00:27:41.851Z,97905.27
2018-09-04T00:32:35.553Z,97910.06
2018-09-04T00:37:31.157Z,97909.52
2018-09-04T00:42:25.975Z,97897.31
2018-09-04T00:47:21.018Z,97919.04
2018-09-04T00:52:14.697Z,97913.23
2018-09-04T00:57:08.889Z,97910.66
2018-09-04T01:02:02.998Z,97903.30
2018-09-04T01:06:56.275Z,97903.30
2018-09-04T01:11:50.468Z,97902.02
2018-09-04T01:16:44.896Z,97899.91
2018-09-04T01:21:39.206Z,97917.00
2018-09-04T01:26:34.296Z,97907.06
2018-09-04T01:31:28.472Z,97900.24
2018-09-04T01:36:22.657Z,97912.47
2018-09-04T01:41:16.796Z,97916.63
2018-09-04T01:46:10.719Z,97910.95
2018-09-04T01:51:05.827Z,97909.48
2018-09-04T01:56:00.229Z,97906.75
2018-09-04T02:00:54.666Z,97888.56
2018-09-04T02:05:47.992Z,97898.37
2018-09-04T02:10:42.556Z,97902.41
2018-09-04T02:15:36.395Z,97899.18
2018-09-04T02:20:29.676Z,97893.47
2018-09-04T02:25:22.800Z,97906.53
2018-09-04T02:30:15.824Z,97913.86
2018-09-04T02:35:08.944Z,97919.51
2018-09-04T02:40:02.063Z,97921.36
2018-09-04T02:44:55.149Z,97925.70
2018-09-04T02:49:48.246Z,97924.41
2018-09-04T02:54:41.419Z,97912.64
2018-09-04T02:59:34.489Z,97931.21
2018-09-04T03:04:27.557Z,97924.31
2018-09-04T03:09:20.563Z,97933.67
2018-09-04T03:14:13.746Z,97917.98
2018-09-04T03:19:06.766Z,97923.11
2018-09-04T03:24:00.189Z,97926.55
2018-09-04T03:28:53.202Z,97918.73
2018-09-04T03:33:46.428Z,97908.59
2018-09-04T03:38:39.612Z,97905.03
2018-09-04T03:43:32.588Z,97898.13
2018-09-04T03:48:25.922Z,97911.70
2018-09-04T03:53:19.014Z,97915.98
2018-09-04T03:58:11.996Z,97900.70
2018-09-04T04:03:05.467Z,97899.89
2018-09-04T04:07:58.584Z,97911.34
2018-09-04T04:12:51.927Z,97902.58
2018-09-04T04:17:45.145Z,97905.97
2018-09-04T04:22:38.590Z,97915.16
2018-09-04T04:27:31.726Z,97905.45
2018-09-04T04:32:25.807Z,97901.83
2018-09-04T04:37:18.919Z,97891.70
2018-09-04T04:42:12.147Z,97879.93
2018-09-04T04:47:05.340Z,97858.97
2018-09-04T04:51:58.548Z,97850.45
2018-09-04T04:56:51.604Z,97858.03
2018-09-04T05:01:44.736Z,97849.16
2018-09-04T05:06:37.902Z,97849.06
2018-09-04T05:11:31.120Z,97848.18
2018-09-04T05:16:24.425Z,97858.00
2018-09-04T05:21:17.514Z,97864.11
2018-09-04T05:26:10.815Z,97870.44
2018-09-04T05:31:04.137Z,97883.11
2018-09-04T05:35:58.699Z,97882.18
2018-09-04T05:40:52.387Z,97892.77
2018-09-04T05:45:46.173Z,97894.16
2018-09-04T05:50:39.948Z,97888.48
2018-09-04T05:55:33.631Z,97889.87
2018-09-04T06:00:30.205Z,97885.07
2018-09-04T06:05:23.933Z,97889.14
2018-09-04T06:10:17.325Z,97889.67
2018-09-04T06:15:11.125Z,97889.73
2018-09-04T06:20:04.583Z,97889.94
2018-09-04T06:24:58.152Z,97889.78
2018-09-04T06:29:51.183Z,97880.27
2018-09-04T06:34:44.513Z,97889.64
2018-09-04T06:39:37.645Z,97895.82
2018-09-04T06:44:30.762Z,97897.80
2018-09-04T06:49:23.702Z,97902.60
2018-09-04T06:54:17.105Z,97903.23
2018-09-04T06:59:10.294Z,97897.14
2018-09-04T07:04:03.401Z,97891.23
2018-09-04T07:08:57.253Z,97891.91
2018-09-04T07:13:50.359Z,97895.65
2018-09-04T07:18:43.404Z,97892.06
2018-09-04T07:23:36.619Z,97896.02
2018-09-04T07:28:29.678Z,97889.23
2018-09-04T07:33:23.189Z,97880.97
2018-09-04T07:38:16.311Z,97887.17
2018-09-04T07:43:09.464Z,97876.39
2018-09-04T07:48:02.593Z,97883.66
2018-09-04T07:52:55.729Z,97876.48
2018-09-04T07:57:48.708Z,97881.09
2018-09-04T08:02:41.759Z,97874.18
2018-09-04T08:07:35.024Z,97871.42
2018-09-04T08:12:28.274Z,97869.60
2018-09-04T08:17:21.878Z,97872.28
2018-09-04T08:22:14.943Z,97868.04
2018-09-04T08:27:08.025Z,97870.03
2018-09-04T08:32:01.396Z,97863.87
2018-09-04T08:36:54.799Z,97864.03
2018-09-04T08:41:47.858Z,97863.53
2018-09-04T08:46:41.055Z,97866.97
2018-09-04T08:51:34.054Z,97864.75
2018-09-04T08:56:27.312Z,97863.03
2018-09-04T09:01:20.523Z,97853.53
2018-09-04T09:06:13.584Z,97847.73
2018-09-04T09:11:06.687Z,97844.46
2018-09-04T09:16:00.193Z,97841.30
2018-09-04T09:20:53.323Z,97842.16
2018-09-04T09:25:46.496Z,97841.20
2018-09-04T09:30:39.568Z,97836.91
2018-09-04T09:35:32.677Z,97843.93
2018-09-04T09:40:25.719Z,97840.91
2018-09-04T09:45:18.851Z,97839.83
2018-09-04T09:50:12.006Z,97830.62
2018-09-04T09:55:06.026Z,97829.02
2018-09-04T09:59:59.352Z,97823.81
2018-09-04T10:04:52.390Z,97819.03
2018-09-04T10:09:45.549Z,97815.05
2018-09-04T10:14:38.737Z,97809.43
2018-09-04T10:19:32.071Z,97803.69
2018-09-04T10:24:25.437Z,97794.12
2018-09-04T10:29:18.444Z,97789.88
2018-09-04T10:34:14.251Z,97787.17
2018-09-04T10:39:13.767Z,97780.56
2018-09-04T10:44:07.085Z,97781.45
2018-09-04T10:49:00.334Z,97776.45
2018-09-04T10:53:53.328Z,97769.28
2018-09-04T10:58:46.957Z,97768.14
2018-09-04T11:03:40.293Z,97770.97
2018-09-04T11:08:34.324Z,97764.66
2018-09-04T11:13:27.443Z,97768.25
2018-09-04T11:18:20.740Z,97763.30
2018-09-04T11:23:13.829Z,97758.30
2018-09-04T11:28:07.070Z,97748.75
2018-09-04T11:33:00.027Z,97753.01
2018-09-04T11:37:53.232Z,97746.24
2018-09-04T11:42:46.419Z,97744.69
2018-09-04T11:47:41.205Z,97755.26
2018-09-04T11:52:34.162Z,97736.56
2018-09-04T11:57:27.488Z,97733.44
2018-09-04T12:02:24.203Z,97743.23
2018-09-04T12:07:17.388Z,97739.97
2018-09-04T12:12:14.872Z,97731.93
2018-09-04T12:17:08.622Z,97719.86
2018-09-04T12:22:02.059Z,97707.77
2018-09-04T12:26:55.221Z,97704.02
2018-09-04T12:31:48.275Z,97701.36
2018-09-04T12:36:41.504Z,97697.59
2018-09-04T12:41:34.724Z,97696.70
2018-09-04T12:46:30.166Z,97683.83
2018-09-04T12:51:23.256Z,97684.05
2018-09-04T12:56:16.383Z,97684.00
2018-09-04T13:01:09.494Z,97686.34
2018-09-04T13:06:02.529Z,97684.85
2018-09-04T13:10:55.548Z,97683.13
2018-09-04T13:15:50.890Z,97681.14
2018-09-04T13:20:44.122Z,97671.72
2018-09-04T13:25:37.092Z,97685.46
2018-09-04T13:30:30.161Z,97676.05
2018-09-04T13:35:23.200Z,97678.92
2018-09-04T13:40:16.367Z,97680.00
2018-09-04T13:45:09.558Z,97688.72
2018-09-04T13:50:02.655Z,97692.05
2018-09-04T13:54:55.982Z,97692.55
2018-09-04T13:59:49.147Z,97698.16
2018-09-04T14:04:42.593Z,97706.22
2018-09-04T14:09:35.863Z,97704.45
2018-09-04T14:14:28.913Z,97704.05
2018-09-04T14:19:22.172Z,97698.55
2018-09-04T14:24:15.174Z,97703.48
2018-09-04T14:29:08.142Z,97694.69
2018-09-04T14:34:01.335Z,97690.94
2018-09-04T14:38:54.407Z,97702.34
2018-09-04T14:43:47.573Z,97681.90
2018-09-04T14:48:41.023Z,97684.08
2018-09-04T14:53:37.582Z,97699.80
2018-09-04T14:58:30.806Z,97685.86
2018-09-04T15:08:58.826Z,97687.27
2018-09-04T15:13:52.083Z,97681.83
2018-09-04T15:18:45.879Z,97684.11
2018-09-04T15:23:38.975Z,97673.41
2018-09-04T15:28:32.059Z,97668.48
2018-09-04T15:33:25.254Z,97680.62
2018-09-04T15:38:18.308Z,97680.72
2018-09-04T15:43:11.444Z,97690.16
2018-09-04T15:48:04.960Z,97693.71
2018-09-04T15:52:58.283Z,97691.78
2018-09-04T15:57:51.516Z,97704.98
2018-09-04T16:02:44.595Z,97698.47
2018-09-04T16:07:37.639Z,97717.13
2018-09-04T16:12:31.936Z,97708.78
2018-09-04T16:17:25.553Z,97711.78
2018-09-04T16:22:18.837Z,97715.13
2018-09-04T16:27:11.979Z,97720.88
2018-09-04T16:32:05.046Z,97711.91
2018-09-04T16:36:58.183Z,97717.20
2018-09-04T16:41:51.238Z,97720.27
2018-09-04T16:46:44.446Z,97735.51
2018-09-04T16:51:38.105Z,97734.88
2018-09-04T16:56:31.244Z,97744.60
2018-09-04T17:01:24.715Z,97736.71
2018-09-04T17:06:17.841Z,97732.72
2018-09-04T17:11:10.858Z,97743.42
2018-09-04T17:16:03.891Z,97743.91
2018-09-04T17:20:57.263Z,97738.92
2018-09-04T17:25:50.476Z,97744.35
2018-09-04T17:30:43.913Z,97732.56
2018-09-04T17:35:36.950Z,97732.89
2018-09-04T17:40:30.189Z,97734.50
2018-09-04T17:45:23.356Z,97735.76
2018-09-04T17:50:16.494Z,97732.72
2018-09-04T17:55:09.951Z,97743.23
2018-09-04T18:00:03.412Z,97743.27
2018-09-04T18:04:56.711Z,97742.95
2018-09-04T18:09:49.775Z,97744.19
2018-09-04T18:14:42.811Z,97750.60
2018-09-04T18:19:35.993Z,97739.69
2018-09-04T18:24:29.401Z,97745.30
2018-09-04T18:29:22.431Z,97752.41
2018-09-04T18:34:15.516Z,97749.07
2018-09-04T18:39:08.990Z,97756.23
2018-09-04T18:44:02.056Z,97765.95
2018-09-04T18:48:56.208Z,97787.73
2018-09-04T18:53:49.239Z,97813.47
2018-09-04T18:58:42.417Z,97839.47
2018-09-04T19:03:35.526Z,97852.28
2018-09-04T19:08:28.490Z,97839.06
2018-09-04T19:13:21.887Z,97850.98
2018-09-04T19:18:14.932Z,97878.67
2018-09-04T19:23:07.964Z,97841.47
2018-09-04T19:28:00.950Z,97828.05
2018-09-04T19:32:53.943Z,97833.28
2018-09-04T19:37:46.978Z,97808.34
2018-09-04T19:42:41.137Z,97800.59
2018-09-04T19:47:34.104Z,97794.33
2018-09-04T19:52:27.043Z,97810.36
2018-09-04T19:57:20.056Z,97822.07
2018-09-04T20:02:13.235Z,97823.10
2018-09-04T20:07:06.402Z,97811.91
2018-09-04T20:11:59.743Z,97816.53
2018-09-04T20:21:45.238Z,97817.55
2018-09-04T20:26:38.307Z,97807.69
2018-09-04T20:31:31.273Z,97802.05
2018-09-04T20:36:24.388Z,97811.78
2018-09-04T20:41:18.015Z,97816.44
2018-09-04T20:46:11.085Z,97812.16
2018-09-04T20:51:04.382Z,97818.95
2018-09-04T20:55:57.375Z,97830.83
2018-09-04T21:01:01.454Z,97846.84
2018-09-04T21:06:05.623Z,97859.08
2018-09-04T21:10:58.564Z,97895.09
2018-09-04T21:15:51.480Z,97939.35
2018-09-04T21:20:44.435Z,97942.27
2018-09-04T21:25:37.677Z,97949.95
2018-09-04T21:30:30.800Z,97941.09
2018-09-04T21:35:24.094Z,97953.72
2018-09-04T21:40:17.064Z,97945.84
2018-09-04T21:45:10.121Z,97918.91
2018-09-04T21:50:03.529Z,97935.27
2018-09-04T21:54:56.603Z,97936.08
2018-09-04T21:59:49.979Z,97927.75
2018-09-04T22:04:43.544Z,97921.46
2018-09-04T22:09:37.390Z,97909.50
2018-09-04T22:14:30.604Z,97901.89
2018-09-04T22:19:23.628Z,97913.55
2018-09-04T22:24:16.605Z,97892.59
2018-09-04T22:29:09.518Z,97881.17
2018-09-04T22:34:02.479Z,97861.41
2018-09-04T22:38:55.543Z,97871.53
2018-09-04T22:43:48.537Z,97876.98
2018-09-04T22:48:41.530Z,97865.14
2018-09-04T22:53:34.558Z,97843.58
2018-09-04T22:58:27.823Z,97858.55
2018-09-04T23:03:20.912Z,97806.72
2018-09-04T23:08:13.977Z,97780.88
2018-09-04T23:13:06.925Z,97791.73
2018-09-04T23:18:00.080Z,97777.63
2018-09-04T23:22:53.003Z,97767.66
2018-09-04T23:27:45.916Z,97756.03
2018-09-04T23:32:39.690Z,97763.60
2018-09-04T23:37:32.732Z,97745.65
2018-09-04T23:42:30.300Z,97760.84
2018-09-04T23:47:23.198Z,97758.80
2018-09-04T23:52:16.253Z,97751.18
2018-09-04T23:57:09.838Z,97776.95
